createdAt,value
2017-12-23T00:00:55.055Z,870.77
2017-12-23T00:01:55.089Z,870.75
2017-12-23T00:02:55.121Z,870.76
2017-12-23T00:03:55.150Z,870.70
2017-12-23T00:04:55.195Z,870.69
2017-12-23T00:05:55.207Z,870.76
2017-12-23T00:06:55.253Z,870.77
2017-12-23T00:07:55.287Z,870.75
2017-12-23T00:08:55.316Z,870.77
2017-12-23T00:09:55.348Z,870.76
2017-12-23T00:10:55.380Z,870.73
2017-12-23T00:11:55.411Z,870.77
2017-12-23T00:12:55.430Z,870.73
2017-12-23T00:13:55.464Z,870.75
2017-12-23T00:14:55.507Z,870.80
2017-12-23T00:15:55.537Z,870.84
2017-12-23T00:16:55.560Z,870.90
2017-12-23T00:17:55.581Z,870.89
2017-12-23T00:18:55.605Z,870.94
2017-12-23T00:19:55.656Z,870.97
2017-12-23T00:20:55.678Z,870.99
2017-12-23T00:21:55.720Z,870.99
2017-12-23T00:22:55.758Z,870.96
2017-12-23T00:23:55.778Z,870.89
2017-12-23T00:24:55.797Z,870.89
2017-12-23T00:25:55.841Z,870.88
2017-12-23T00:26:55.866Z,870.83
2017-12-23T00:27:55.906Z,870.85
2017-12-23T00:28:55.940Z,870.87
2017-12-23T00:29:55.988Z,870.88
2017-12-23T00:30:56.455Z,870.88
2017-12-23T00:31:56.039Z,870.92
2017-12-23T00:32:56.070Z,870.93
2017-12-23T00:33:56.105Z,870.94
2017-12-23T00:34:56.134Z,870.96
2017-12-23T00:35:56.172Z,870.92
2017-12-23T00:36:56.204Z,870.97
2017-12-23T00:37:56.239Z,870.99
2017-12-23T00:38:56.268Z,871.04
2017-12-23T00:39:56.303Z,871.07
2017-12-23T00:40:56.336Z,871.06
2017-12-23T00:41:56.368Z,871.03
2017-12-23T00:42:56.412Z,871.07
2017-12-23T00:43:56.434Z,871.07
2017-12-23T00:44:56.467Z,871.08
2017-12-23T00:45:56.503Z,871.10
2017-12-23T00:46:56.544Z,871.08
2017-12-23T00:47:56.566Z,871.06
2017-12-23T00:48:56.602Z,871.03
2017-12-23T00:49:56.642Z,871.04
2017-12-23T00:50:57.134Z,871.07
2017-12-23T00:51:56.686Z,871.07
2017-12-23T00:52:56.718Z,871.08
2017-12-23T00:53:56.763Z,871.09
2017-12-23T00:54:56.799Z,871.07
2017-12-23T00:55:56.833Z,871.04
2017-12-23T00:56:56.865Z,871.03
2017-12-23T00:57:56.892Z,871.07
2017-12-23T00:58:56.916Z,871.07
2017-12-23T00:59:56.963Z,871.11
2017-12-23T01:00:56.982Z,871.11
2017-12-23T01:01:57.025Z,871.07
2017-12-23T01:02:57.060Z,871.14
2017-12-23T01:03:57.082Z,871.14
2017-12-23T01:04:57.124Z,871.14
2017-12-23T01:05:57.154Z,871.14
2017-12-23T01:06:57.180Z,871.18
2017-12-23T01:07:57.226Z,871.17
2017-12-23T01:08:57.258Z,871.20
2017-12-23T01:09:57.275Z,871.23
2017-12-23T01:10:57.322Z,871.24
2017-12-23T01:11:57.354Z,871.22
2017-12-23T01:12:57.397Z,871.26
2017-12-23T01:13:57.430Z,871.26
2017-12-23T01:14:57.451Z,871.25
2017-12-23T01:15:57.497Z,871.27
2017-12-23T01:16:57.514Z,871.24
2017-12-23T01:17:57.539Z,871.27
2017-12-23T01:18:57.597Z,871.26
2017-12-23T01:19:57.843Z,871.25
2017-12-23T01:20:57.660Z,871.30
2017-12-23T01:21:58.128Z,871.28
2017-12-23T01:22:57.724Z,871.23
2017-12-23T01:23:57.758Z,871.26
2017-12-23T01:24:57.791Z,871.27
2017-12-23T01:25:57.815Z,871.29
2017-12-23T01:26:57.846Z,871.29
2017-12-23T01:27:57.880Z,871.33
2017-12-23T01:28:57.899Z,871.37
2017-12-23T01:29:57.932Z,871.37
2017-12-23T01:30:57.973Z,871.36
2017-12-23T01:31:58.021Z,871.38
2017-12-23T01:32:58.051Z,871.40
2017-12-23T01:33:58.071Z,871.40
2017-12-23T01:34:58.095Z,871.38
2017-12-23T01:35:58.140Z,871.37
2017-12-23T01:36:58.161Z,871.39
2017-12-23T01:37:58.208Z,871.36
2017-12-23T01:38:58.236Z,871.40
2017-12-23T01:39:58.272Z,871.39
2017-12-23T01:40:58.291Z,871.39
2017-12-23T01:41:58.336Z,871.38
2017-12-23T01:42:58.369Z,871.39
2017-12-23T01:43:58.406Z,871.41
2017-12-23T01:44:58.423Z,871.44
2017-12-23T01:45:58.468Z,871.47
2017-12-23T01:46:58.487Z,871.49
2017-12-23T01:47:58.535Z,871.50
2017-12-23T01:48:58.571Z,871.56
2017-12-23T01:49:58.598Z,871.59
2017-12-23T01:50:58.641Z,871.60
2017-12-23T01:51:58.664Z,871.59
2017-12-23T01:52:58.708Z,871.56
2017-12-23T01:53:58.725Z,871.53
2017-12-23T01:54:58.765Z,871.55
2017-12-23T01:55:58.784Z,871.55
2017-12-23T01:56:58.837Z,871.54
2017-12-23T01:57:58.885Z,871.57
2017-12-23T01:58:58.877Z,871.59
2017-12-23T01:59:58.934Z,871.58
2017-12-23T02:00:58.988Z,871.58
2017-12-23T02:01:58.975Z,871.56
2017-12-23T02:02:59.030Z,871.53
2017-12-23T02:03:59.063Z,871.61
2017-12-23T02:04:59.075Z,871.57
2017-12-23T02:05:59.116Z,871.62
2017-12-23T02:06:59.137Z,871.63
2017-12-23T02:07:59.182Z,871.73
2017-12-23T02:08:59.203Z,871.69
2017-12-23T02:09:59.241Z,871.70
2017-12-23T02:10:59.276Z,871.68
2017-12-23T02:11:59.311Z,871.68
2017-12-23T02:12:59.328Z,871.75
2017-12-23T02:13:59.360Z,871.77
2017-12-23T02:14:59.408Z,871.74
2017-12-23T02:15:59.437Z,871.79
2017-12-23T02:16:59.456Z,871.82
2017-12-23T02:17:59.490Z,871.78
2017-12-23T02:18:59.533Z,871.80
2017-12-23T02:19:59.572Z,871.82
2017-12-23T02:20:59.596Z,871.79
2017-12-23T02:21:59.628Z,871.83
2017-12-23T02:22:59.649Z,871.85
2017-12-23T02:23:59.696Z,871.86
2017-12-23T02:24:59.712Z,871.85
2017-12-23T02:25:59.746Z,871.85
2017-12-23T02:26:59.787Z,871.90
2017-12-23T02:27:59.819Z,871.89
2017-12-23T02:28:59.853Z,871.97
2017-12-23T02:29:59.874Z,871.93
2017-12-23T02:30:59.905Z,871.98
2017-12-23T02:31:59.937Z,871.99
2017-12-23T02:32:59.978Z,872.04
2017-12-23T02:33:59.999Z,872.04
2017-12-23T02:35:00.053Z,872.05
2017-12-23T02:36:00.079Z,872.11
2017-12-23T02:37:00.106Z,872.04
2017-12-23T02:38:00.137Z,872.07
2017-12-23T02:39:00.158Z,872.04
2017-12-23T02:40:00.200Z,872.08
2017-12-23T02:41:00.227Z,872.05
2017-12-23T02:42:00.252Z,872.03
2017-12-23T02:43:00.286Z,872.07
2017-12-23T02:44:00.340Z,872.07
2017-12-23T02:45:00.349Z,872.14
2017-12-23T02:46:00.379Z,872.14
2017-12-23T02:47:00.421Z,872.11
2017-12-23T02:48:00.441Z,872.08
2017-12-23T02:49:00.497Z,872.04
2017-12-23T02:50:00.515Z,872.01
2017-12-23T02:51:00.550Z,872.05
2017-12-23T02:52:00.591Z,872.05
2017-12-23T02:53:00.600Z,872.08
2017-12-23T02:54:00.630Z,872.07
2017-12-23T02:55:00.674Z,872.09
2017-12-23T02:56:00.704Z,872.07
2017-12-23T02:57:00.733Z,872.05
2017-12-23T02:58:00.777Z,872.06
2017-12-23T02:59:00.786Z,872.08
2017-12-23T03:00:00.833Z,872.06
2017-12-23T03:01:00.860Z,872.09
2017-12-23T03:02:01.343Z,872.07
2017-12-23T03:03:00.926Z,872.16
2017-12-23T03:04:00.954Z,872.15
2017-12-23T03:05:00.973Z,872.16
2017-12-23T03:06:01.027Z,872.18
2017-12-23T03:07:01.048Z,872.16
2017-12-23T03:08:01.082Z,872.14
2017-12-23T03:09:01.099Z,872.15
2017-12-23T03:10:01.146Z,872.15
2017-12-23T03:11:01.184Z,872.15
2017-12-23T03:12:01.196Z,872.14
2017-12-23T03:13:01.226Z,872.13
2017-12-23T03:14:01.266Z,872.17
2017-12-23T03:15:01.350Z,872.16
2017-12-23T03:16:01.329Z,872.16
2017-12-23T03:17:01.362Z,872.16
2017-12-23T03:18:01.392Z,872.15
2017-12-23T03:19:01.424Z,872.15
2017-12-23T03:20:01.452Z,872.15
2017-12-23T03:21:01.482Z,872.15
2017-12-23T03:22:01.518Z,872.18
2017-12-23T03:23:01.534Z,872.19
2017-12-23T03:24:01.584Z,872.20
2017-12-23T03:25:01.610Z,872.21
2017-12-23T03:26:01.641Z,872.22
2017-12-23T03:27:01.679Z,872.22
2017-12-23T03:28:01.690Z,872.24
2017-12-23T03:29:01.733Z,872.29
2017-12-23T03:30:01.775Z,872.30
2017-12-23T03:31:01.785Z,872.31
2017-12-23T03:32:01.821Z,872.29
2017-12-23T03:33:01.854Z,872.32
2017-12-23T03:34:01.976Z,872.30
2017-12-23T03:35:01.921Z,872.29
2017-12-23T03:36:01.951Z,872.30
2017-12-23T03:37:01.995Z,872.27
2017-12-23T03:38:02.010Z,872.25
2017-12-23T03:39:02.130Z,872.27
2017-12-23T03:40:02.085Z,872.27
2017-12-23T03:41:02.104Z,872.26
2017-12-23T03:42:02.136Z,872.30
2017-12-23T03:43:02.156Z,872.29
2017-12-23T03:44:02.210Z,872.25
2017-12-23T03:45:02.230Z,872.23
2017-12-23T03:46:02.250Z,872.22
2017-12-23T03:47:02.290Z,872.19
2017-12-23T03:48:02.311Z,872.18
2017-12-23T03:49:02.343Z,872.21
2017-12-23T03:50:02.387Z,872.14
2017-12-23T03:51:02.414Z,872.17
2017-12-23T03:52:02.434Z,872.20
2017-12-23T03:53:02.476Z,872.19
2017-12-23T03:54:02.983Z,872.15
2017-12-23T03:55:02.541Z,872.14
2017-12-23T03:56:02.568Z,872.13
2017-12-23T03:57:03.066Z,872.17
2017-12-23T03:58:02.635Z,872.16
2017-12-23T03:59:02.650Z,872.14
2017-12-23T04:00:02.704Z,872.11
2017-12-23T04:01:02.721Z,872.12
2017-12-23T04:02:02.756Z,872.14
2017-12-23T04:03:02.799Z,872.09
2017-12-23T04:04:02.817Z,872.08
2017-12-23T04:05:02.837Z,872.07
2017-12-23T04:06:02.891Z,872.08
2017-12-23T04:07:02.909Z,872.03
2017-12-23T04:08:02.944Z,872.08
2017-12-23T04:09:39.097Z,872.02
2017-12-23T04:10:39.057Z,872.00
2017-12-23T04:11:39.093Z,871.96
2017-12-23T04:12:39.116Z,871.97
2017-12-23T04:13:39.148Z,871.95
2017-12-23T04:14:39.186Z,872.00
2017-12-23T04:15:39.218Z,871.96
2017-12-23T04:16:39.238Z,871.99
2017-12-23T04:17:39.726Z,871.94
2017-12-23T04:18:39.315Z,871.95
2017-12-23T04:19:39.340Z,871.95
2017-12-23T04:20:39.385Z,871.98
2017-12-23T04:21:39.408Z,871.97
2017-12-23T04:22:39.422Z,871.95
2017-12-23T04:23:39.464Z,871.96
2017-12-23T04:24:39.501Z,871.96
2017-12-23T04:25:39.976Z,871.93
2017-12-23T04:26:40.035Z,871.91
2017-12-23T04:27:39.579Z,871.91
2017-12-23T04:28:39.619Z,871.92
2017-12-23T04:29:39.653Z,871.96
2017-12-23T04:30:39.681Z,871.99
2017-12-23T04:31:39.716Z,871.96
2017-12-23T04:32:39.733Z,871.99
2017-12-23T04:33:39.765Z,872.01
2017-12-23T04:34:39.808Z,872.00
2017-12-23T04:35:39.837Z,872.02
2017-12-23T04:36:39.877Z,872.01
2017-12-23T04:37:39.902Z,872.00
2017-12-23T04:38:39.932Z,871.94
2017-12-23T04:39:40.074Z,871.97
2017-12-23T04:40:39.982Z,871.94
2017-12-23T04:41:40.026Z,871.95
2017-12-23T04:42:40.045Z,871.97
2017-12-23T04:43:40.096Z,871.96
2017-12-23T04:44:40.118Z,871.95
2017-12-23T04:45:40.162Z,871.95
2017-12-23T04:46:40.192Z,871.93
2017-12-23T04:47:40.212Z,871.86
2017-12-23T04:48:40.242Z,871.86
2017-12-23T04:49:40.492Z,871.88
2017-12-23T04:50:40.292Z,871.86
2017-12-23T04:51:40.334Z,871.87
2017-12-23T04:52:40.376Z,871.84
2017-12-23T04:53:40.397Z,871.86
2017-12-23T04:54:40.418Z,871.84
2017-12-23T04:55:40.457Z,871.83
2017-12-23T04:56:40.488Z,871.82
2017-12-23T04:57:40.511Z,871.85
2017-12-23T04:58:40.565Z,871.85
2017-12-23T04:59:40.588Z,871.85
2017-12-23T05:00:41.089Z,871.84
2017-12-23T05:01:40.647Z,871.85
2017-12-23T05:02:40.678Z,871.80
2017-12-23T05:03:40.696Z,871.81
2017-12-23T05:04:40.750Z,871.78
2017-12-23T05:05:40.770Z,871.74
2017-12-23T05:06:40.811Z,871.73
2017-12-23T05:07:40.847Z,871.73
2017-12-23T05:08:40.866Z,871.75
2017-12-23T05:09:40.956Z,871.75
2017-12-23T05:10:40.931Z,871.77
2017-12-23T05:11:40.972Z,871.76
2017-12-23T05:12:40.978Z,871.76
2017-12-23T05:13:41.019Z,871.75
2017-12-23T05:14:41.051Z,871.81
2017-12-23T05:15:41.080Z,871.75
2017-12-23T05:16:41.112Z,871.76
2017-12-23T05:17:41.142Z,871.75
2017-12-23T05:18:41.172Z,871.74
2017-12-23T05:19:41.192Z,871.72
2017-12-23T05:20:41.232Z,871.73
2017-12-23T05:21:41.739Z,871.71
2017-12-23T05:22:41.308Z,871.66
2017-12-23T05:23:41.319Z,871.71
2017-12-23T05:24:41.374Z,871.69
2017-12-23T05:25:41.380Z,871.66
2017-12-23T05:26:41.423Z,871.68
2017-12-23T05:27:41.467Z,871.61
2017-12-23T05:28:41.482Z,871.62
2017-12-23T05:29:41.530Z,871.62
2017-12-23T05:30:41.560Z,871.55
2017-12-23T05:31:41.578Z,871.57
2017-12-23T05:32:41.608Z,871.53
2017-12-23T05:33:41.639Z,871.55
2017-12-23T05:34:41.677Z,871.50
2017-12-23T05:35:41.708Z,871.51
2017-12-23T05:36:41.725Z,871.49
2017-12-23T05:37:41.772Z,871.45
2017-12-23T05:38:41.803Z,871.46
2017-12-23T05:39:41.818Z,871.44
2017-12-23T05:40:41.851Z,871.38
2017-12-23T05:41:41.895Z,871.36
2017-12-23T05:42:41.936Z,871.36
2017-12-23T05:43:41.970Z,871.34
2017-12-23T05:44:41.990Z,871.38
2017-12-23T05:45:42.033Z,871.37
2017-12-23T05:46:42.162Z,871.33
2017-12-23T05:47:42.094Z,871.31
2017-12-23T05:48:42.113Z,871.33
2017-12-23T05:49:42.147Z,871.34
2017-12-23T05:50:42.189Z,871.31
2017-12-23T05:51:42.212Z,871.30
2017-12-23T05:52:42.230Z,871.30
2017-12-23T05:53:42.275Z,871.29
2017-12-23T05:54:42.315Z,871.28
2017-12-23T05:55:42.330Z,871.28
2017-12-23T05:56:42.380Z,871.29
2017-12-23T05:57:42.400Z,871.23
2017-12-23T05:58:42.448Z,871.26
2017-12-23T05:59:42.450Z,871.24
2017-12-23T06:00:42.494Z,871.21
2017-12-23T06:01:42.522Z,871.15
2017-12-23T06:02:42.570Z,871.12
2017-12-23T06:03:42.685Z,871.08
2017-12-23T06:04:42.619Z,871.06
2017-12-23T06:05:42.640Z,871.07
2017-12-23T06:06:42.685Z,871.06
2017-12-23T06:07:42.714Z,871.05
2017-12-23T06:08:42.749Z,871.04
2017-12-23T06:09:42.778Z,871.01
2017-12-23T06:10:42.803Z,870.95
2017-12-23T06:11:42.832Z,870.95
2017-12-23T06:12:42.879Z,870.91
2017-12-23T06:13:42.919Z,870.87
2017-12-23T06:14:42.950Z,870.88
2017-12-23T06:15:42.974Z,870.87
2017-12-23T06:16:43.016Z,870.85
2017-12-23T06:17:43.048Z,870.83
2017-12-23T06:18:43.072Z,870.82
2017-12-23T06:19:43.104Z,870.83
2017-12-23T06:20:43.136Z,870.84
2017-12-23T06:21:43.151Z,870.79
2017-12-23T06:22:43.191Z,870.82
2017-12-23T06:23:43.218Z,870.77
2017-12-23T06:24:43.260Z,870.74
2017-12-23T06:25:43.765Z,870.68
2017-12-23T06:26:43.322Z,870.67
2017-12-23T06:27:43.341Z,870.70
2017-12-23T06:28:43.384Z,870.72
2017-12-23T06:29:43.420Z,870.69
2017-12-23T06:30:43.454Z,870.65
2017-12-23T06:31:43.488Z,870.59
2017-12-23T06:32:43.822Z,870.62
2017-12-23T06:33:43.549Z,870.64
2017-12-23T06:34:43.578Z,870.62
2017-12-23T06:35:43.609Z,870.59
2017-12-23T06:36:43.640Z,870.55
2017-12-23T06:37:43.688Z,870.55
2017-12-23T06:38:43.699Z,870.53
2017-12-23T06:39:43.730Z,870.50
2017-12-23T06:40:43.893Z,870.43
2017-12-23T06:41:43.806Z,870.37
2017-12-23T06:42:43.838Z,870.35
2017-12-23T06:43:43.871Z,870.35
2017-12-23T06:44:43.951Z,870.32
2017-12-23T06:45:43.941Z,870.30
2017-12-23T06:46:43.981Z,870.33
2017-12-23T06:47:44.052Z,870.30
2017-12-23T06:48:44.033Z,870.26
2017-12-23T06:49:44.068Z,870.26
2017-12-23T06:50:44.402Z,870.27
2017-12-23T06:51:44.138Z,870.27
2017-12-23T06:52:44.150Z,870.28
2017-12-23T06:53:44.196Z,870.26
2017-12-23T06:54:44.215Z,870.24
2017-12-23T06:55:44.259Z,870.21
2017-12-23T06:56:44.293Z,870.22
2017-12-23T06:57:44.323Z,870.23
2017-12-23T06:58:44.395Z,870.22
2017-12-23T06:59:44.388Z,870.24
2017-12-23T07:00:44.414Z,870.26
2017-12-23T07:01:44.442Z,870.26
2017-12-23T07:02:44.471Z,870.24
2017-12-23T07:03:44.531Z,870.23
2017-12-23T07:04:44.551Z,870.22
2017-12-23T07:05:44.571Z,870.18
2017-12-23T07:06:44.602Z,870.13
2017-12-23T07:07:44.635Z,870.09
2017-12-23T07:08:44.668Z,870.08
2017-12-23T07:09:44.701Z,870.05
2017-12-23T07:10:44.745Z,870.04
2017-12-23T07:11:44.783Z,870.08
2017-12-23T07:12:44.810Z,870.02
2017-12-23T07:13:44.828Z,869.99
2017-12-23T07:14:44.934Z,869.97
2017-12-23T07:15:44.906Z,869.90
2017-12-23T07:16:44.942Z,869.91
2017-12-23T07:17:44.976Z,869.80
2017-12-23T07:18:45.003Z,869.81
2017-12-23T07:19:45.034Z,869.81
2017-12-23T07:20:45.077Z,869.83
2017-12-23T07:21:45.101Z,869.81
2017-12-23T07:22:45.128Z,869.84
2017-12-23T07:23:45.162Z,869.83
2017-12-23T07:24:45.182Z,869.83
2017-12-23T07:25:45.238Z,869.79
2017-12-23T07:26:45.259Z,869.80
2017-12-23T07:27:45.289Z,869.74
2017-12-23T07:28:45.806Z,869.72
2017-12-23T07:29:45.356Z,869.75
2017-12-23T07:30:45.389Z,869.74
2017-12-23T07:31:45.418Z,869.71
2017-12-23T07:32:45.656Z,869.67
2017-12-23T07:33:45.482Z,869.66
2017-12-23T07:34:45.513Z,869.65
2017-12-23T07:35:45.558Z,869.62
2017-12-23T07:36:45.593Z,869.61
2017-12-23T07:37:45.625Z,869.67
2017-12-23T07:38:45.646Z,869.65
2017-12-23T07:39:45.665Z,869.65
2017-12-23T07:40:45.716Z,869.60
2017-12-23T07:41:45.733Z,869.60
2017-12-23T07:42:45.788Z,869.60
2017-12-23T07:43:45.820Z,869.54
2017-12-23T07:44:45.841Z,869.59
2017-12-23T07:45:45.872Z,869.57
2017-12-23T07:46:45.911Z,869.57
2017-12-23T07:47:45.943Z,869.56
2017-12-23T07:48:45.984Z,869.49
2017-12-23T07:49:46.001Z,869.45
2017-12-23T07:50:46.047Z,869.44
2017-12-23T07:51:46.055Z,869.41
2017-12-23T07:52:46.098Z,869.37
2017-12-23T07:53:46.124Z,869.35
2017-12-23T07:54:46.178Z,869.32
2017-12-23T07:55:46.198Z,869.34
2017-12-23T07:56:46.231Z,869.30
2017-12-23T07:57:46.265Z,869.29
2017-12-23T07:58:46.285Z,869.33
2017-12-23T07:59:46.320Z,869.32
2017-12-23T08:00:46.362Z,869.30
2017-12-23T08:01:46.394Z,869.30
2017-12-23T08:02:46.412Z,869.26
2017-12-23T08:03:46.502Z,869.22
2017-12-23T08:04:46.478Z,869.22
2017-12-23T08:05:46.534Z,869.24
2017-12-23T08:06:46.554Z,869.22
2017-12-23T08:07:46.578Z,869.25
2017-12-23T08:08:46.616Z,869.24
2017-12-23T08:09:46.652Z,869.25
2017-12-23T08:10:46.681Z,869.31
2017-12-23T08:11:46.714Z,869.27
2017-12-23T08:12:46.737Z,869.27
2017-12-23T08:13:46.771Z,869.24
2017-12-23T08:14:46.827Z,869.18
2017-12-23T08:15:46.835Z,869.18
2017-12-23T08:16:46.877Z,869.15
2017-12-23T08:17:47.379Z,869.13
2017-12-23T08:18:46.929Z,869.11
2017-12-23T08:19:46.987Z,869.07
2017-12-23T08:20:47.009Z,869.09
2017-12-23T08:21:47.028Z,869.10
2017-12-23T08:22:47.074Z,869.10
2017-12-23T08:23:47.107Z,869.09
2017-12-23T08:24:47.149Z,869.06
2017-12-23T08:25:47.168Z,869.05
2017-12-23T08:26:47.189Z,869.05
2017-12-23T08:27:47.236Z,868.96
2017-12-23T08:28:47.278Z,868.96
2017-12-23T08:29:47.310Z,868.99
2017-12-23T08:30:47.331Z,868.98
2017-12-23T08:31:47.362Z,868.95
2017-12-23T08:32:47.400Z,868.95
2017-12-23T08:33:47.427Z,868.98
2017-12-23T08:34:47.461Z,869.01
2017-12-23T08:35:47.494Z,869.03
2017-12-23T08:36:47.537Z,869.02
2017-12-23T08:37:47.581Z,869.00
2017-12-23T08:38:47.603Z,869.00
2017-12-23T08:39:47.639Z,868.99
2017-12-23T08:40:47.659Z,868.97
2017-12-23T08:41:47.680Z,868.91
2017-12-23T08:42:47.721Z,868.90
2017-12-23T08:43:47.755Z,868.86
2017-12-23T08:44:47.786Z,868.83
2017-12-23T08:45:47.806Z,868.90
2017-12-23T08:46:47.845Z,868.90
2017-12-23T08:47:47.885Z,868.94
2017-12-23T08:48:47.909Z,868.92
2017-12-23T08:49:47.958Z,868.89
2017-12-23T08:50:47.990Z,868.88
2017-12-23T08:51:48.025Z,868.88
2017-12-23T08:52:48.055Z,868.88
2017-12-23T08:53:48.077Z,868.92
2017-12-23T08:54:48.098Z,868.93
2017-12-23T08:55:48.140Z,868.96
2017-12-23T08:56:48.165Z,869.02
2017-12-23T08:57:48.192Z,868.97
2017-12-23T08:58:48.262Z,868.99
2017-12-23T08:59:48.270Z,869.01
2017-12-23T09:00:48.316Z,868.98
2017-12-23T09:01:48.324Z,868.97
2017-12-23T09:02:48.594Z,868.96
2017-12-23T09:03:48.411Z,868.92
2017-12-23T09:04:48.456Z,868.88
2017-12-23T09:05:48.487Z,868.88
2017-12-23T09:06:48.483Z,868.89
2017-12-23T09:07:48.983Z,868.93
2017-12-23T09:08:48.558Z,868.93
2017-12-23T09:09:48.590Z,868.91
2017-12-23T09:10:48.623Z,868.92
2017-12-23T09:11:48.657Z,868.92
2017-12-23T09:12:48.711Z,868.92
2017-12-23T09:13:48.709Z,868.92
2017-12-23T09:14:48.766Z,868.93
2017-12-23T09:15:48.809Z,868.88
2017-12-23T09:16:48.833Z,868.86
2017-12-23T09:17:48.877Z,868.88
2017-12-23T09:18:48.906Z,868.89
2017-12-23T09:19:48.961Z,868.90
2017-12-23T09:20:48.947Z,868.89
2017-12-23T09:21:48.999Z,868.90
2017-12-23T09:22:49.470Z,868.90
2017-12-23T09:23:49.030Z,868.86
2017-12-23T09:24:49.582Z,868.84
2017-12-23T09:25:49.120Z,868.84
2017-12-23T09:26:49.155Z,868.83
2017-12-23T09:27:49.162Z,868.84
2017-12-23T09:28:49.228Z,868.83
2017-12-23T09:29:49.264Z,868.87
2017-12-23T09:30:49.264Z,868.86
2017-12-23T09:31:49.304Z,868.96
2017-12-23T09:32:49.349Z,868.96
2017-12-23T09:33:49.366Z,868.96
2017-12-23T09:34:49.423Z,869.00
2017-12-23T09:35:49.427Z,869.03
2017-12-23T09:36:49.459Z,869.04
2017-12-23T09:37:49.509Z,869.00
2017-12-23T09:38:49.539Z,869.06
2017-12-23T09:39:49.556Z,869.05
2017-12-23T09:40:49.593Z,869.03
2017-12-23T09:41:49.647Z,869.05
2017-12-23T09:42:49.641Z,869.02
2017-12-23T09:43:49.676Z,869.02
2017-12-23T09:44:49.710Z,869.07
2017-12-23T09:45:49.738Z,869.06
2017-12-23T09:46:49.797Z,869.07
2017-12-23T09:47:49.802Z,869.10
2017-12-23T09:48:49.872Z,869.14
2017-12-23T09:49:49.891Z,869.12
2017-12-23T09:50:49.925Z,869.13
2017-12-23T09:51:49.958Z,869.15
2017-12-23T09:52:49.963Z,869.12
2017-12-23T09:53:49.998Z,869.06
2017-12-23T09:54:50.054Z,869.02
2017-12-23T09:55:50.070Z,868.99
2017-12-23T09:56:50.092Z,868.97
2017-12-23T09:57:50.153Z,868.95
2017-12-23T09:58:50.166Z,868.95
2017-12-23T09:59:50.561Z,868.95
2017-12-23T10:00:50.223Z,868.93
2017-12-23T10:01:50.256Z,869.00
2017-12-23T10:02:50.310Z,869.00
2017-12-23T10:03:50.317Z,869.03
2017-12-23T10:04:50.384Z,869.04
2017-12-23T10:05:50.418Z,869.05
2017-12-23T10:06:50.453Z,869.05
2017-12-23T10:07:50.482Z,869.08
2017-12-23T10:08:50.479Z,869.08
2017-12-23T10:09:50.536Z,869.05
2017-12-23T10:10:50.541Z,869.05
2017-12-23T10:11:50.599Z,869.02
2017-12-23T10:12:51.124Z,869.01
2017-12-23T10:13:50.639Z,869.02
2017-12-23T10:14:50.671Z,869.04
2017-12-23T10:15:50.727Z,869.07
2017-12-23T10:16:50.736Z,869.07
2017-12-23T10:17:50.783Z,869.14
2017-12-23T10:18:50.817Z,869.17
2017-12-23T10:19:50.847Z,869.18
2017-12-23T10:20:50.891Z,869.19
2017-12-23T10:21:50.924Z,869.18
2017-12-23T10:22:50.946Z,869.19
2017-12-23T10:23:50.995Z,869.18
2017-12-23T10:24:50.995Z,869.18
2017-12-23T10:25:51.036Z,869.15
2017-12-23T10:26:51.074Z,869.16
2017-12-23T10:27:51.698Z,869.18
2017-12-23T10:28:51.124Z,869.21
2017-12-23T10:29:51.181Z,869.17
2017-12-23T10:30:51.199Z,869.20
2017-12-23T10:31:51.235Z,869.20
2017-12-23T10:32:51.265Z,869.25
2017-12-23T10:33:51.283Z,869.26
2017-12-23T10:34:51.325Z,869.25
2017-12-23T10:35:51.402Z,869.25
2017-12-23T10:36:51.395Z,869.28
2017-12-23T10:37:51.422Z,869.28
2017-12-23T10:38:51.453Z,869.34
2017-12-23T10:39:51.475Z,869.36
2017-12-23T10:40:51.533Z,869.43
2017-12-23T10:41:51.998Z,869.43
2017-12-23T10:42:51.569Z,869.42
2017-12-23T10:43:51.619Z,869.40
2017-12-23T10:44:51.646Z,869.40
2017-12-23T10:45:51.678Z,869.37
2017-12-23T10:46:51.713Z,869.38
2017-12-23T10:47:51.744Z,869.37
2017-12-23T10:48:51.788Z,869.37
2017-12-23T10:49:51.812Z,869.39
2017-12-23T10:50:51.829Z,869.41
2017-12-23T10:51:51.887Z,869.40
2017-12-23T10:52:51.902Z,869.39
2017-12-23T10:54:51.966Z,869.34
2017-12-23T10:55:51.999Z,869.34
2017-12-23T10:56:52.047Z,869.31
2017-12-23T10:57:52.070Z,869.32
2017-12-23T10:58:52.085Z,869.35
2017-12-23T10:59:52.125Z,869.37
2017-12-23T11:00:52.163Z,869.39
2017-12-23T11:01:52.183Z,869.44
2017-12-23T11:02:52.227Z,869.49
2017-12-23T11:03:52.259Z,869.46
2017-12-23T11:04:52.292Z,869.44
2017-12-23T11:05:52.320Z,869.50
2017-12-23T11:06:52.362Z,869.47
2017-12-23T11:07:52.397Z,869.48
2017-12-23T11:08:52.427Z,869.51
2017-12-23T11:09:52.441Z,869.54
2017-12-23T11:10:52.485Z,869.61
2017-12-23T11:11:52.525Z,869.66
2017-12-23T11:12:52.546Z,869.67
2017-12-23T11:13:52.564Z,869.69
2017-12-23T11:14:52.612Z,869.71
2017-12-23T11:15:52.643Z,869.66
2017-12-23T11:16:52.679Z,869.63
2017-12-23T11:17:52.715Z,869.65
2017-12-23T11:18:52.738Z,869.69
2017-12-23T11:19:52.769Z,869.71
2017-12-23T11:20:52.787Z,869.72
2017-12-23T11:21:52.842Z,869.72
2017-12-23T11:22:52.850Z,869.71
2017-12-23T11:23:52.897Z,869.74
2017-12-23T11:24:52.915Z,869.75
2017-12-23T11:25:52.958Z,869.72
2017-12-23T11:26:53.002Z,869.77
2017-12-23T11:27:53.020Z,869.75
2017-12-23T11:28:53.059Z,869.77
2017-12-23T11:29:53.090Z,869.80
2017-12-23T11:30:53.128Z,869.84
2017-12-23T11:31:53.353Z,869.89
2017-12-23T11:32:53.194Z,869.92
2017-12-23T11:33:53.224Z,869.87
2017-12-23T11:34:53.241Z,869.91
2017-12-23T11:35:53.262Z,869.90
2017-12-23T11:36:53.314Z,869.89
2017-12-23T11:37:53.829Z,869.88
2017-12-23T11:38:53.383Z,869.88
2017-12-23T11:39:53.415Z,869.95
2017-12-23T11:40:53.440Z,870.03
2017-12-23T11:41:53.469Z,870.09
2017-12-23T11:42:53.503Z,870.12
2017-12-23T11:43:53.530Z,870.10
2017-12-23T11:44:53.576Z,870.11
2017-12-23T11:45:53.607Z,870.03
2017-12-23T11:46:53.624Z,870.07
2017-12-23T11:47:53.653Z,870.04
2017-12-23T11:48:53.689Z,870.02
2017-12-23T11:49:53.708Z,870.03
2017-12-23T11:50:53.758Z,870.02
2017-12-23T11:51:53.785Z,870.06
2017-12-23T11:52:53.807Z,870.07
2017-12-23T11:53:53.861Z,870.06
2017-12-23T11:54:53.881Z,870.09
2017-12-23T11:55:53.900Z,870.10
2017-12-23T11:56:53.957Z,870.17
2017-12-23T11:57:53.977Z,870.15
2017-12-23T11:58:54.008Z,870.18
2017-12-23T11:59:54.035Z,870.21
2017-12-23T12:00:54.075Z,870.20
2017-12-23T12:01:54.116Z,870.18
2017-12-23T12:02:54.141Z,870.21
2017-12-23T12:03:54.182Z,870.25
2017-12-23T12:04:54.204Z,870.21
2017-12-23T12:05:54.216Z,870.20
2017-12-23T12:06:54.269Z,870.23
2017-12-23T12:07:54.300Z,870.29
2017-12-23T12:08:54.822Z,870.30
2017-12-23T12:09:54.352Z,870.35
2017-12-23T12:10:54.393Z,870.37
2017-12-23T12:11:54.431Z,870.39
2017-12-23T12:12:54.457Z,870.41
2017-12-23T12:13:54.554Z,870.46
2017-12-23T12:14:54.504Z,870.44
2017-12-23T12:15:54.533Z,870.44
2017-12-23T12:16:55.024Z,870.48
2017-12-23T12:17:54.608Z,870.50
2017-12-23T12:18:54.628Z,870.48
2017-12-23T12:19:54.688Z,870.53
2017-12-23T12:20:54.689Z,870.54
2017-12-23T12:21:54.753Z,870.55
2017-12-23T12:22:54.774Z,870.54
2017-12-23T12:23:54.790Z,870.53
2017-12-23T12:24:54.828Z,870.57
2017-12-23T12:25:54.852Z,870.61
2017-12-23T12:26:54.899Z,870.61
2017-12-23T12:27:54.922Z,870.68
2017-12-23T12:28:54.977Z,870.68
2017-12-23T12:29:55.148Z,870.70
2017-12-23T12:30:55.008Z,870.69